sensor_id;sensor_type;location;lat;lon;timestamp;P1;durP1;ratioP1;P2;durP2;ratioP2
17796;SDS011;55596;53.554;9.916;2023-07-31T00:00:30;10.47;;;3.03;;
17796;SDS011;55596;53.554;9.916;2023-07-31T00:02:58;13.67;;;3.53;;
17796;SDS011;55596;53.554;9.916;2023-07-31T00:05:25;13.43;;;3.33;;
17796;SDS011;55596;53.554;9.916;2023-07-31T00:07:52;10.57;;;3.37;;
17796;SDS011;55596;53.554;9.916;2023-07-31T00:10:20;13.90;;;2.80;;
17796;SDS011;55596;53.554;9.916;2023-07-31T00:12:47;13.60;;;3.30;;
17796;SDS011;55596;53.554;9.916;2023-07-31T00:15:14;14.63;;;3.20;;
17796;SDS011;55596;53.554;9.916;2023-07-31T00:17:42;8.93;;;2.40;;
17796;SDS011;55596;53.554;9.916;2023-07-31T00:20:10;12.53;;;3.03;;
17796;SDS011;55596;53.554;9.916;2023-07-31T00:22:38;11.90;;;3.13;;
17796;SDS011;55596;53.554;9.916;2023-07-31T00:25:05;10.70;;;2.50;;
17796;SDS011;55596;53.554;9.916;2023-07-31T00:27:32;11.03;;;2.30;;
17796;SDS011;55596;53.554;9.916;2023-07-31T00:29:59;12.60;;;2.87;;
17796;SDS011;55596;53.554;9.916;2023-07-31T00:32:26;13.27;;;2.50;;
17796;SDS011;55596;53.554;9.916;2023-07-31T00:34:53;10.50;;;2.63;;
17796;SDS011;55596;53.554;9.916;2023-07-31T00:37:22;8.43;;;2.50;;
17796;SDS011;55596;53.554;9.916;2023-07-31T00:39:49;8.53;;;2.30;;
17796;SDS011;55596;53.554;9.916;2023-07-31T00:42:16;10.87;;;2.23;;
17796;SDS011;55596;53.554;9.916;2023-07-31T00:44:43;16.17;;;2.57;;
17796;SDS011;55596;53.554;9.916;2023-07-31T00:47:10;11.17;;;2.70;;
17796;SDS011;55596;53.554;9.916;2023-07-31T00:49:37;6.93;;;2.37;;
17796;SDS011;55596;53.554;9.916;2023-07-31T00:52:05;14.97;;;2.63;;
17796;SDS011;55596;53.554;9.916;2023-07-31T00:54:34;11.17;;;2.57;;
17796;SDS011;55596;53.554;9.916;2023-07-31T00:57:01;8.80;;;2.63;;
17796;SDS011;55596;53.554;9.916;2023-07-31T00:59:28;13.10;;;2.60;;
17796;SDS011;55596;53.554;9.916;2023-07-31T01:01:55;9.30;;;2.73;;
17796;SDS011;55596;53.554;9.916;2023-07-31T01:04:22;5.47;;;2.00;;
17796;SDS011;55596;53.554;9.916;2023-07-31T01:06:52;6.93;;;2.20;;
17796;SDS011;55596;53.554;9.916;2023-07-31T01:09:23;8.60;;;2.30;;
17796;SDS011;55596;53.554;9.916;2023-07-31T01:11:56;10.63;;;3.20;;
17796;SDS011;55596;53.554;9.916;2023-07-31T01:14:24;8.37;;;2.50;;
17796;SDS011;55596;53.554;9.916;2023-07-31T01:16:52;7.47;;;2.93;;
17796;SDS011;55596;53.554;9.916;2023-07-31T01:19:20;7.13;;;2.73;;
17796;SDS011;55596;53.554;9.916;2023-07-31T01:21:53;12.67;;;2.90;;
17796;SDS011;55596;53.554;9.916;2023-07-31T01:24:28;6.33;;;2.40;;
17796;SDS011;55596;53.554;9.916;2023-07-31T01:26:58;10.57;;;3.00;;
17796;SDS011;55596;53.554;9.916;2023-07-31T01:29:32;8.37;;;2.90;;
17796;SDS011;55596;53.554;9.916;2023-07-31T01:32:02;11.23;;;2.90;;
17796;SDS011;55596;53.554;9.916;2023-07-31T01:34:31;9.90;;;2.90;;
17796;SDS011;55596;53.554;9.916;2023-07-31T01:36:59;6.23;;;2.87;;
17796;SDS011;55596;53.554;9.916;2023-07-31T01:39:26;15.40;;;3.53;;
17796;SDS011;55596;53.554;9.916;2023-07-31T01:41:53;10.50;;;2.90;;
17796;SDS011;55596;53.554;9.916;2023-07-31T01:44:21;7.67;;;2.60;;
17796;SDS011;55596;53.554;9.916;2023-07-31T01:46:49;12.30;;;2.97;;
17796;SDS011;55596;53.554;9.916;2023-07-31T01:49:16;11.07;;;2.83;;
17796;SDS011;55596;53.554;9.916;2023-07-31T01:51:43;10.93;;;3.07;;
17796;SDS011;55596;53.554;9.916;2023-07-31T01:54:10;7.83;;;2.57;;
17796;SDS011;55596;53.554;9.916;2023-07-31T01:56:37;13.43;;;3.53;;
17796;SDS011;55596;53.554;9.916;2023-07-31T01:59:05;9.67;;;2.87;;
17796;SDS011;55596;53.554;9.916;2023-07-31T02:01:33;12.47;;;2.70;;
17796;SDS011;55596;53.554;9.916;2023-07-31T02:04:00;14.90;;;3.67;;
17796;SDS011;55596;53.554;9.916;2023-07-31T02:06:29;10.83;;;3.20;;
17796;SDS011;55596;53.554;9.916;2023-07-31T02:08:57;9.90;;;2.97;;
17796;SDS011;55596;53.554;9.916;2023-07-31T02:11:24;9.77;;;3.20;;
17796;SDS011;55596;53.554;9.916;2023-07-31T02:13:51;6.93;;;2.63;;
17796;SDS011;55596;53.554;9.916;2023-07-31T02:16:18;10.10;;;3.00;;
17796;SDS011;55596;53.554;9.916;2023-07-31T02:18:47;14.17;;;2.93;;
17796;SDS011;55596;53.554;9.916;2023-07-31T02:21:14;9.53;;;3.03;;
17796;SDS011;55596;53.554;9.916;2023-07-31T02:23:41;10.97;;;3.30;;
17796;SDS011;55596;53.554;9.916;2023-07-31T02:26:08;8.23;;;3.00;;
17796;SDS011;55596;53.554;9.916;2023-07-31T02:28:35;6.13;;;2.70;;
17796;SDS011;55596;53.554;9.916;2023-07-31T02:31:02;8.07;;;2.93;;
17796;SDS011;55596;53.554;9.916;2023-07-31T02:33:29;8.30;;;3.03;;
17796;SDS011;55596;53.554;9.916;2023-07-31T02:35:58;8.87;;;3.07;;
17796;SDS011;55596;53.554;9.916;2023-07-31T02:38:25;7.83;;;3.07;;
17796;SDS011;55596;53.554;9.916;2023-07-31T02:40:52;15.80;;;3.07;;
17796;SDS011;55596;53.554;9.916;2023-07-31T02:43:19;8.93;;;2.90;;
17796;SDS011;55596;53.554;9.916;2023-07-31T02:45:50;11.83;;;3.00;;
17796;SDS011;55596;53.554;9.916;2023-07-31T02:48:17;8.53;;;3.03;;
17796;SDS011;55596;53.554;9.916;2023-07-31T02:50:44;8.47;;;3.10;;
17796;SDS011;55596;53.554;9.916;2023-07-31T02:53:13;8.80;;;3.20;;
17796;SDS011;55596;53.554;9.916;2023-07-31T02:55:40;10.93;;;3.10;;
17796;SDS011;55596;53.554;9.916;2023-07-31T02:58:07;10.27;;;3.30;;
17796;SDS011;55596;53.554;9.916;2023-07-31T03:00:34;8.40;;;3.10;;
17796;SDS011;55596;53.554;9.916;2023-07-31T03:03:02;9.33;;;3.13;;
17796;SDS011;55596;53.554;9.916;2023-07-31T03:05:29;9.03;;;3.43;;
17796;SDS011;55596;53.554;9.916;2023-07-31T03:07:56;8.10;;;3.23;;
17796;SDS011;55596;53.554;9.916;2023-07-31T03:10:24;8.00;;;3.60;;
17796;SDS011;55596;53.554;9.916;2023-07-31T03:12:51;10.87;;;3.50;;
17796;SDS011;55596;53.554;9.916;2023-07-31T03:15:19;7.30;;;3.23;;
17796;SDS011;55596;53.554;9.916;2023-07-31T03:17:46;10.10;;;3.50;;
17796;SDS011;55596;53.554;9.916;2023-07-31T03:20:13;12.53;;;3.23;;
17796;SDS011;55596;53.554;9.916;2023-07-31T03:22:40;11.70;;;3.47;;
17796;SDS011;55596;53.554;9.916;2023-07-31T03:25:08;9.63;;;3.53;;
17796;SDS011;55596;53.554;9.916;2023-07-31T03:27:37;8.90;;;3.03;;
17796;SDS011;55596;53.554;9.916;2023-07-31T03:30:04;9.83;;;3.80;;
17796;SDS011;55596;53.554;9.916;2023-07-31T03:32:32;8.93;;;3.63;;
17796;SDS011;55596;53.554;9.916;2023-07-31T03:34:59;8.63;;;3.70;;
17796;SDS011;55596;53.554;9.916;2023-07-31T03:37:27;6.23;;;3.20;;
17796;SDS011;55596;53.554;9.916;2023-07-31T03:39:54;7.13;;;3.63;;
17796;SDS011;55596;53.554;9.916;2023-07-31T03:42:21;9.87;;;3.40;;
17796;SDS011;55596;53.554;9.916;2023-07-31T03:44:49;9.07;;;3.20;;
17796;SDS011;55596;53.554;9.916;2023-07-31T03:47:17;9.17;;;3.23;;
17796;SDS011;55596;53.554;9.916;2023-07-31T03:49:44;8.43;;;2.90;;
17796;SDS011;55596;53.554;9.916;2023-07-31T03:52:11;4.93;;;2.93;;
17796;SDS011;55596;53.554;9.916;2023-07-31T03:54:38;7.47;;;3.00;;
17796;SDS011;55596;53.554;9.916;2023-07-31T03:57:05;6.57;;;3.30;;
17796;SDS011;55596;53.554;9.916;2023-07-31T03:59:32;6.30;;;3.00;;
17796;SDS011;55596;53.554;9.916;2023-07-31T04:02:01;6.53;;;3.20;;
17796;SDS011;55596;53.554;9.916;2023-07-31T04:04:28;5.40;;;2.87;;
17796;SDS011;55596;53.554;9.916;2023-07-31T04:06:55;6.30;;;3.07;;
17796;SDS011;55596;53.554;9.916;2023-07-31T04:09:22;5.27;;;2.50;;
17796;SDS011;55596;53.554;9.916;2023-07-31T04:11:50;5.80;;;3.13;;
17796;SDS011;55596;53.554;9.916;2023-07-31T04:14:17;4.23;;;2.87;;
17796;SDS011;55596;53.554;9.916;2023-07-31T04:16:44;5.57;;;2.90;;
17796;SDS011;55596;53.554;9.916;2023-07-31T04:19:12;8.00;;;3.23;;
17796;SDS011;55596;53.554;9.916;2023-07-31T04:21:41;7.13;;;3.17;;
17796;SDS011;55596;53.554;9.916;2023-07-31T04:24:08;4.67;;;2.90;;
17796;SDS011;55596;53.554;9.916;2023-07-31T04:26:35;6.77;;;3.30;;
17796;SDS011;55596;53.554;9.916;2023-07-31T04:29:03;7.20;;;3.27;;
17796;SDS011;55596;53.554;9.916;2023-07-31T04:31:30;5.03;;;3.20;;
17796;SDS011;55596;53.554;9.916;2023-07-31T04:33:57;5.37;;;3.40;;
17796;SDS011;55596;53.554;9.916;2023-07-31T04:36:25;6.03;;;3.67;;
17796;SDS011;55596;53.554;9.916;2023-07-31T04:38:52;7.97;;;3.70;;
17796;SDS011;55596;53.554;9.916;2023-07-31T04:41:20;6.03;;;3.83;;
17796;SDS011;55596;53.554;9.916;2023-07-31T04:43:47;5.47;;;3.60;;
17796;SDS011;55596;53.554;9.916;2023-07-31T04:46:14;7.13;;;3.67;;
17796;SDS011;55596;53.554;9.916;2023-07-31T04:48:42;5.83;;;3.60;;
17796;SDS011;55596;53.554;9.916;2023-07-31T04:51:09;6.43;;;4.00;;
17796;SDS011;55596;53.554;9.916;2023-07-31T04:53:37;6.17;;;4.57;;
17796;SDS011;55596;53.554;9.916;2023-07-31T04:56:05;9.20;;;4.43;;
17796;SDS011;55596;53.554;9.916;2023-07-31T04:58:32;7.10;;;3.80;;
17796;SDS011;55596;53.554;9.916;2023-07-31T05:00:59;8.10;;;4.57;;
17796;SDS011;55596;53.554;9.916;2023-07-31T05:03:26;9.53;;;4.43;;
17796;SDS011;55596;53.554;9.916;2023-07-31T05:05:53;6.83;;;3.77;;
17796;SDS011;55596;53.554;9.916;2023-07-31T05:08:20;4.43;;;4.07;;
17796;SDS011;55596;53.554;9.916;2023-07-31T05:10:49;7.33;;;4.17;;
17796;SDS011;55596;53.554;9.916;2023-07-31T05:13:16;6.67;;;4.73;;
17796;SDS011;55596;53.554;9.916;2023-07-31T05:15:43;5.43;;;4.67;;
17796;SDS011;55596;53.554;9.916;2023-07-31T05:18:11;5.53;;;5.00;;
17796;SDS011;55596;53.554;9.916;2023-07-31T05:20:38;8.63;;;4.60;;
17796;SDS011;55596;53.554;9.916;2023-07-31T05:23:06;6.67;;;5.00;;
17796;SDS011;55596;53.554;9.916;2023-07-31T05:25:33;8.47;;;4.97;;
17796;SDS011;55596;53.554;9.916;2023-07-31T05:28:02;7.10;;;5.03;;
17796;SDS011;55596;53.554;9.916;2023-07-31T05:30:29;7.43;;;4.63;;
17796;SDS011;55596;53.554;9.916;2023-07-31T05:32:56;6.53;;;5.00;;
17796;SDS011;55596;53.554;9.916;2023-07-31T05:35:24;8.43;;;4.90;;
17796;SDS011;55596;53.554;9.916;2023-07-31T05:37:51;6.20;;;5.37;;
17796;SDS011;55596;53.554;9.916;2023-07-31T05:40:18;5.73;;;5.10;;
17796;SDS011;55596;53.554;9.916;2023-07-31T05:42:45;5.87;;;5.37;;
17796;SDS011;55596;53.554;9.916;2023-07-31T05:45:13;5.80;;;5.30;;
17796;SDS011;55596;53.554;9.916;2023-07-31T05:47:41;7.93;;;5.60;;
17796;SDS011;55596;53.554;9.916;2023-07-31T05:50:08;6.53;;;5.23;;
17796;SDS011;55596;53.554;9.916;2023-07-31T05:52:35;6.73;;;6.03;;
17796;SDS011;55596;53.554;9.916;2023-07-31T05:55:02;10.70;;;5.60;;
17796;SDS011;55596;53.554;9.916;2023-07-31T05:57:30;7.83;;;6.47;;
17796;SDS011;55596;53.554;9.916;2023-07-31T05:59:57;7.10;;;6.27;;
17796;SDS011;55596;53.554;9.916;2023-07-31T06:02:25;6.90;;;6.10;;
17796;SDS011;55596;53.554;9.916;2023-07-31T06:04:52;7.73;;;6.07;;
17796;SDS011;55596;53.554;9.916;2023-07-31T06:07:20;7.83;;;6.47;;
17796;SDS011;55596;53.554;9.916;2023-07-31T06:09:47;6.37;;;5.67;;
17796;SDS011;55596;53.554;9.916;2023-07-31T06:12:14;8.53;;;6.43;;
17796;SDS011;55596;53.554;9.916;2023-07-31T06:14:43;10.50;;;6.73;;
17796;SDS011;55596;53.554;9.916;2023-07-31T06:17:10;8.17;;;6.10;;
17796;SDS011;55596;53.554;9.916;2023-07-31T06:19:39;7.40;;;6.70;;
17796;SDS011;55596;53.554;9.916;2023-07-31T06:22:06;7.20;;;6.50;;
17796;SDS011;55596;53.554;9.916;2023-07-31T06:24:33;6.63;;;5.93;;
17796;SDS011;55596;53.554;9.916;2023-07-31T06:27:00;8.37;;;6.33;;
17796;SDS011;55596;53.554;9.916;2023-07-31T06:29:29;6.03;;;5.43;;
17796;SDS011;55596;53.554;9.916;2023-07-31T06:31:56;7.57;;;6.80;;
17796;SDS011;55596;53.554;9.916;2023-07-31T06:34:23;6.87;;;6.10;;
17796;SDS011;55596;53.554;9.916;2023-07-31T06:36:52;6.83;;;6.00;;
17796;SDS011;55596;53.554;9.916;2023-07-31T06:39:19;7.50;;;6.00;;
17796;SDS011;55596;53.554;9.916;2023-07-31T06:41:46;7.20;;;6.50;;
17796;SDS011;55596;53.554;9.916;2023-07-31T06:44:13;6.67;;;6.00;;
17796;SDS011;55596;53.554;9.916;2023-07-31T06:46:42;6.23;;;5.73;;
17796;SDS011;55596;53.554;9.916;2023-07-31T06:49:09;6.87;;;6.27;;
17796;SDS011;55596;53.554;9.916;2023-07-31T06:51:36;7.63;;;6.53;;
17796;SDS011;55596;53.554;9.916;2023-07-31T06:54:05;6.70;;;6.10;;
17796;SDS011;55596;53.554;9.916;2023-07-31T06:56:32;6.53;;;6.00;;
17796;SDS011;55596;53.554;9.916;2023-07-31T06:58:59;7.50;;;6.53;;
17796;SDS011;55596;53.554;9.916;2023-07-31T07:01:26;6.63;;;6.03;;
17796;SDS011;55596;53.554;9.916;2023-07-31T07:03:53;6.77;;;6.17;;
17796;SDS011;55596;53.554;9.916;2023-07-31T07:06:21;6.43;;;5.73;;
17796;SDS011;55596;53.554;9.916;2023-07-31T07:08:48;10.03;;;6.30;;
17796;SDS011;55596;53.554;9.916;2023-07-31T07:11:17;6.30;;;5.70;;
17796;SDS011;55596;53.554;9.916;2023-07-31T07:13:44;6.90;;;6.10;;
17796;SDS011;55596;53.554;9.916;2023-07-31T07:16:11;6.53;;;5.83;;
17796;SDS011;55596;53.554;9.916;2023-07-31T07:18:38;6.50;;;5.87;;
17796;SDS011;55596;53.554;9.916;2023-07-31T07:21:06;5.63;;;5.13;;
17796;SDS011;55596;53.554;9.916;2023-07-31T07:23:33;6.20;;;5.03;;
17796;SDS011;55596;53.554;9.916;2023-07-31T07:26:00;4.93;;;4.53;;
17796;SDS011;55596;53.554;9.916;2023-07-31T07:28:29;7.53;;;4.77;;
17796;SDS011;55596;53.554;9.916;2023-07-31T07:30:56;5.60;;;4.70;;
17796;SDS011;55596;53.554;9.916;2023-07-31T07:33:23;8.03;;;5.50;;
17796;SDS011;55596;53.554;9.916;2023-07-31T07:35:50;6.63;;;4.60;;
17796;SDS011;55596;53.554;9.916;2023-07-31T07:38:19;4.80;;;4.40;;
17796;SDS011;55596;53.554;9.916;2023-07-31T07:40:46;5.20;;;4.70;;
17796;SDS011;55596;53.554;9.916;2023-07-31T07:43:15;4.90;;;4.40;;
17796;SDS011;55596;53.554;9.916;2023-07-31T07:45:43;5.67;;;4.80;;
17796;SDS011;55596;53.554;9.916;2023-07-31T07:48:11;5.03;;;4.37;;
17796;SDS011;55596;53.554;9.916;2023-07-31T07:50:38;6.20;;;5.13;;
17796;SDS011;55596;53.554;9.916;2023-07-31T07:53:05;5.23;;;4.83;;
17796;SDS011;55596;53.554;9.916;2023-07-31T07:55:32;5.30;;;4.80;;
17796;SDS011;55596;53.554;9.916;2023-07-31T07:57:59;5.43;;;4.93;;
17796;SDS011;55596;53.554;9.916;2023-07-31T08:00:26;4.10;;;3.80;;
17796;SDS011;55596;53.554;9.916;2023-07-31T08:02:55;4.60;;;4.20;;
17796;SDS011;55596;53.554;9.916;2023-07-31T08:05:23;4.33;;;3.90;;
17796;SDS011;55596;53.554;9.916;2023-07-31T08:07:50;4.10;;;3.60;;
17796;SDS011;55596;53.554;9.916;2023-07-31T08:10:18;3.30;;;3.00;;
17796;SDS011;55596;53.554;9.916;2023-07-31T08:12:45;2.60;;;2.40;;
17796;SDS011;55596;53.554;9.916;2023-07-31T08:15:12;3.07;;;2.40;;
17796;SDS011;55596;53.554;9.916;2023-07-31T08:17:39;6.67;;;2.03;;
17796;SDS011;55596;53.554;9.916;2023-07-31T08:20:08;2.10;;;1.70;;
17796;SDS011;55596;53.554;9.916;2023-07-31T08:22:36;3.00;;;1.70;;
17796;SDS011;55596;53.554;9.916;2023-07-31T08:25:03;1.73;;;1.60;;
17796;SDS011;55596;53.554;9.916;2023-07-31T08:27:31;2.87;;;2.07;;
17796;SDS011;55596;53.554;9.916;2023-07-31T08:29:58;2.60;;;1.93;;
17796;SDS011;55596;53.554;9.916;2023-07-31T08:32:26;1.70;;;1.60;;
17796;SDS011;55596;53.554;9.916;2023-07-31T08:34:53;2.50;;;1.90;;
17796;SDS011;55596;53.554;9.916;2023-07-31T08:37:21;1.87;;;1.77;;
17796;SDS011;55596;53.554;9.916;2023-07-31T08:39:48;2.33;;;1.40;;
17796;SDS011;55596;53.554;9.916;2023-07-31T08:42:16;2.43;;;1.60;;
17796;SDS011;55596;53.554;9.916;2023-07-31T08:44:43;1.50;;;1.40;;
17796;SDS011;55596;53.554;9.916;2023-07-31T08:47:10;1.77;;;1.63;;
17796;SDS011;55596;53.554;9.916;2023-07-31T08:49:37;1.63;;;1.53;;
17796;SDS011;55596;53.554;9.916;2023-07-31T08:52:06;2.37;;;1.57;;
17796;SDS011;55596;53.554;9.916;2023-07-31T08:54:34;3.80;;;1.70;;
17796;SDS011;55596;53.554;9.916;2023-07-31T08:57:02;1.50;;;1.40;;
17796;SDS011;55596;53.554;9.916;2023-07-31T08:59:30;1.57;;;1.47;;
17796;SDS011;55596;53.554;9.916;2023-07-31T09:01:59;1.63;;;1.33;;
17796;SDS011;55596;53.554;9.916;2023-07-31T09:04:28;2.10;;;1.10;;
17796;SDS011;55596;53.554;9.916;2023-07-31T09:06:57;1.30;;;1.20;;
17796;SDS011;55596;53.554;9.916;2023-07-31T09:09:26;2.00;;;1.80;;
17796;SDS011;55596;53.554;9.916;2023-07-31T09:11:55;1.37;;;1.07;;
17796;SDS011;55596;53.554;9.916;2023-07-31T09:14:22;1.80;;;1.10;;
17796;SDS011;55596;53.554;9.916;2023-07-31T09:16:51;1.60;;;1.30;;
17796;SDS011;55596;53.554;9.916;2023-07-31T09:19:26;5.43;;;1.67;;
17796;SDS011;55596;53.554;9.916;2023-07-31T09:21:53;1.83;;;1.00;;
17796;SDS011;55596;53.554;9.916;2023-07-31T09:24:27;4.07;;;1.47;;
17796;SDS011;55596;53.554;9.916;2023-07-31T09:26:56;4.27;;;2.27;;
17796;SDS011;55596;53.554;9.916;2023-07-31T09:29:24;3.23;;;0.90;;
17796;SDS011;55596;53.554;9.916;2023-07-31T09:31:52;1.57;;;1.47;;
17796;SDS011;55596;53.554;9.916;2023-07-31T09:34:19;3.10;;;1.20;;
17796;SDS011;55596;53.554;9.916;2023-07-31T09:36:47;2.13;;;0.80;;
17796;SDS011;55596;53.554;9.916;2023-07-31T09:39:15;2.53;;;1.23;;
17796;SDS011;55596;53.554;9.916;2023-07-31T09:41:43;1.30;;;1.10;;
17796;SDS011;55596;53.554;9.916;2023-07-31T09:44:12;2.97;;;1.27;;
17796;SDS011;55596;53.554;9.916;2023-07-31T09:46:40;1.13;;;1.03;;
17796;SDS011;55596;53.554;9.916;2023-07-31T09:49:08;3.07;;;2.17;;
17796;SDS011;55596;53.554;9.916;2023-07-31T09:51:35;1.03;;;1.00;;
17796;SDS011;55596;53.554;9.916;2023-07-31T09:54:08;1.33;;;1.23;;
17796;SDS011;55596;53.554;9.916;2023-07-31T09:56:37;1.07;;;0.97;;
17796;SDS011;55596;53.554;9.916;2023-07-31T09:59:05;2.13;;;1.10;;
17796;SDS011;55596;53.554;9.916;2023-07-31T10:01:34;1.17;;;1.00;;
17796;SDS011;55596;53.554;9.916;2023-07-31T10:04:01;0.80;;;0.67;;
17796;SDS011;55596;53.554;9.916;2023-07-31T10:06:28;1.20;;;0.90;;
17796;SDS011;55596;53.554;9.916;2023-07-31T10:08:56;0.67;;;0.67;;
17796;SDS011;55596;53.554;9.916;2023-07-31T10:11:23;0.97;;;0.60;;
17796;SDS011;55596;53.554;9.916;2023-07-31T10:13:51;1.30;;;0.77;;
17796;SDS011;55596;53.554;9.916;2023-07-31T10:16:19;0.67;;;0.67;;
17796;SDS011;55596;53.554;9.916;2023-07-31T10:18:48;1.37;;;0.80;;
17796;SDS011;55596;53.554;9.916;2023-07-31T10:21:16;1.43;;;0.80;;
17796;SDS011;55596;53.554;9.916;2023-07-31T10:23:44;3.23;;;1.63;;
17796;SDS011;55596;53.554;9.916;2023-07-31T10:26:12;1.30;;;1.20;;
17796;SDS011;55596;53.554;9.916;2023-07-31T10:28:40;1.20;;;0.77;;
17796;SDS011;55596;53.554;9.916;2023-07-31T10:31:07;1.20;;;1.10;;
17796;SDS011;55596;53.554;9.916;2023-07-31T10:33:34;0.83;;;0.70;;
17796;SDS011;55596;53.554;9.916;2023-07-31T10:38:49;0.93;;;0.80;;
17796;SDS011;55596;53.554;9.916;2023-07-31T10:41:17;0.80;;;0.50;;
17796;SDS011;55596;53.554;9.916;2023-07-31T10:43:45;1.13;;;1.03;;
17796;SDS011;55596;53.554;9.916;2023-07-31T10:46:13;1.50;;;1.20;;
17796;SDS011;55596;53.554;9.916;2023-07-31T10:48:41;2.07;;;1.37;;
17796;SDS011;55596;53.554;9.916;2023-07-31T10:51:08;2.07;;;1.57;;
17796;SDS011;55596;53.554;9.916;2023-07-31T10:53:36;3.33;;;2.13;;
17796;SDS011;55596;53.554;9.916;2023-07-31T10:56:06;1.73;;;1.20;;
17796;SDS011;55596;53.554;9.916;2023-07-31T10:58:34;5.67;;;2.40;;
17796;SDS011;55596;53.554;9.916;2023-07-31T11:01:03;8.67;;;5.57;;
17796;SDS011;55596;53.554;9.916;2023-07-31T11:03:40;4.23;;;2.73;;
17796;SDS011;55596;53.554;9.916;2023-07-31T11:06:08;4.83;;;2.70;;
17796;SDS011;55596;53.554;9.916;2023-07-31T11:08:40;4.17;;;2.33;;
17796;SDS011;55596;53.554;9.916;2023-07-31T11:11:09;5.37;;;3.50;;
17796;SDS011;55596;53.554;9.916;2023-07-31T11:13:41;6.30;;;2.83;;
17796;SDS011;55596;53.554;9.916;2023-07-31T11:16:09;5.07;;;3.43;;
17796;SDS011;55596;53.554;9.916;2023-07-31T11:18:37;4.73;;;3.00;;
17796;SDS011;55596;53.554;9.916;2023-07-31T11:21:05;5.20;;;3.40;;
17796;SDS011;55596;53.554;9.916;2023-07-31T11:23:32;8.40;;;3.10;;
17796;SDS011;55596;53.554;9.916;2023-07-31T11:26:00;9.90;;;4.00;;
17796;SDS011;55596;53.554;9.916;2023-07-31T11:28:31;8.73;;;4.20;;
17796;SDS011;55596;53.554;9.916;2023-07-31T11:30:59;8.10;;;3.20;;
17796;SDS011;55596;53.554;9.916;2023-07-31T11:33:26;10.43;;;3.70;;
17796;SDS011;55596;53.554;9.916;2023-07-31T11:35:54;24.57;;;3.53;;
17796;SDS011;55596;53.554;9.916;2023-07-31T11:38:21;6.83;;;2.87;;
17796;SDS011;55596;53.554;9.916;2023-07-31T11:40:49;18.73;;;4.27;;
17796;SDS011;55596;53.554;9.916;2023-07-31T11:43:17;4.67;;;3.10;;
17796;SDS011;55596;53.554;9.916;2023-07-31T11:45:46;6.87;;;4.13;;
17796;SDS011;55596;53.554;9.916;2023-07-31T11:48:18;1.63;;;1.40;;
17796;SDS011;55596;53.554;9.916;2023-07-31T11:50:46;2.93;;;1.63;;
17796;SDS011;55596;53.554;9.916;2023-07-31T11:53:14;1.90;;;1.30;;
17796;SDS011;55596;53.554;9.916;2023-07-31T11:55:42;1.00;;;0.93;;
17796;SDS011;55596;53.554;9.916;2023-07-31T11:58:10;1.40;;;0.90;;
17796;SDS011;55596;53.554;9.916;2023-07-31T12:00:38;0.97;;;0.90;;
17796;SDS011;55596;53.554;9.916;2023-07-31T12:03:07;0.87;;;0.83;;
17796;SDS011;55596;53.554;9.916;2023-07-31T12:05:35;3.53;;;1.30;;
17796;SDS011;55596;53.554;9.916;2023-07-31T12:08:08;3.93;;;1.47;;
17796;SDS011;55596;53.554;9.916;2023-07-31T12:10:36;2.07;;;1.27;;
17796;SDS011;55596;53.554;9.916;2023-07-31T12:13:05;0.90;;;0.80;;
17796;SDS011;55596;53.554;9.916;2023-07-31T12:15:36;1.20;;;0.83;;
17796;SDS011;55596;53.554;9.916;2023-07-31T12:18:06;7.27;;;1.33;;
17796;SDS011;55596;53.554;9.916;2023-07-31T12:20:34;2.97;;;1.30;;
17796;SDS011;55596;53.554;9.916;2023-07-31T12:23:02;1.93;;;1.20;;
17796;SDS011;55596;53.554;9.916;2023-07-31T12:25:30;2.90;;;2.47;;
17796;SDS011;55596;53.554;9.916;2023-07-31T12:27:57;2.30;;;1.50;;
17796;SDS011;55596;53.554;9.916;2023-07-31T12:30:28;4.83;;;1.67;;
17796;SDS011;55596;53.554;9.916;2023-07-31T12:32:55;2.47;;;1.77;;
17796;SDS011;55596;53.554;9.916;2023-07-31T12:35:24;1.07;;;0.73;;
17796;SDS011;55596;53.554;9.916;2023-07-31T12:37:52;2.87;;;1.20;;
17796;SDS011;55596;53.554;9.916;2023-07-31T12:40:19;1.20;;;0.80;;
17796;SDS011;55596;53.554;9.916;2023-07-31T12:42:46;3.33;;;0.53;;
17796;SDS011;55596;53.554;9.916;2023-07-31T12:45:14;2.47;;;0.93;;
17796;SDS011;55596;53.554;9.916;2023-07-31T12:47:41;1.20;;;0.70;;
17796;SDS011;55596;53.554;9.916;2023-07-31T12:50:09;1.57;;;0.90;;
17796;SDS011;55596;53.554;9.916;2023-07-31T12:52:37;1.20;;;1.10;;
17796;SDS011;55596;53.554;9.916;2023-07-31T12:55:05;2.10;;;1.40;;
17796;SDS011;55596;53.554;9.916;2023-07-31T12:57:32;1.73;;;1.10;;
17796;SDS011;55596;53.554;9.916;2023-07-31T12:59:59;1.23;;;0.80;;
17796;SDS011;55596;53.554;9.916;2023-07-31T13:02:27;1.30;;;1.20;;
17796;SDS011;55596;53.554;9.916;2023-07-31T13:04:54;1.00;;;0.80;;
17796;SDS011;55596;53.554;9.916;2023-07-31T13:07:21;1.67;;;1.20;;
17796;SDS011;55596;53.554;9.916;2023-07-31T13:09:50;1.30;;;1.20;;
17796;SDS011;55596;53.554;9.916;2023-07-31T13:12:17;1.20;;;1.07;;
17796;SDS011;55596;53.554;9.916;2023-07-31T13:14:44;3.33;;;1.03;;
17796;SDS011;55596;53.554;9.916;2023-07-31T13:17:12;2.53;;;1.00;;
17796;SDS011;55596;53.554;9.916;2023-07-31T13:19:39;1.23;;;1.13;;
17796;SDS011;55596;53.554;9.916;2023-07-31T13:22:07;1.40;;;1.30;;
17796;SDS011;55596;53.554;9.916;2023-07-31T13:24:34;2.40;;;1.63;;
17796;SDS011;55596;53.554;9.916;2023-07-31T13:27:03;2.27;;;2.00;;
17796;SDS011;55596;53.554;9.916;2023-07-31T13:29:30;2.57;;;1.90;;
17796;SDS011;55596;53.554;9.916;2023-07-31T13:31:57;3.63;;;3.33;;
17796;SDS011;55596;53.554;9.916;2023-07-31T13:34:25;2.40;;;2.20;;
17796;SDS011;55596;53.554;9.916;2023-07-31T13:36:53;1.43;;;1.20;;
17796;SDS011;55596;53.554;9.916;2023-07-31T13:39:21;2.73;;;1.60;;
17796;SDS011;55596;53.554;9.916;2023-07-31T13:41:48;2.83;;;1.50;;
17796;SDS011;55596;53.554;9.916;2023-07-31T13:44:17;2.17;;;1.97;;
17796;SDS011;55596;53.554;9.916;2023-07-31T13:46:44;2.17;;;1.80;;
17796;SDS011;55596;53.554;9.916;2023-07-31T13:49:12;4.27;;;2.07;;
17796;SDS011;55596;53.554;9.916;2023-07-31T13:51:39;4.80;;;1.30;;
17796;SDS011;55596;53.554;9.916;2023-07-31T13:54:06;5.00;;;1.83;;
17796;SDS011;55596;53.554;9.916;2023-07-31T13:56:33;2.87;;;1.40;;
17796;SDS011;55596;53.554;9.916;2023-07-31T13:59:00;1.57;;;1.43;;
17796;SDS011;55596;53.554;9.916;2023-07-31T14:01:29;6.57;;;2.00;;
17796;SDS011;55596;53.554;9.916;2023-07-31T14:03:56;4.47;;;2.00;;
17796;SDS011;55596;53.554;9.916;2023-07-31T14:06:24;5.40;;;1.63;;
17796;SDS011;55596;53.554;9.916;2023-07-31T14:08:51;3.57;;;1.80;;
17796;SDS011;55596;53.554;9.916;2023-07-31T14:11:18;1.80;;;1.20;;
17796;SDS011;55596;53.554;9.916;2023-07-31T14:13:45;7.73;;;1.10;;
17796;SDS011;55596;53.554;9.916;2023-07-31T14:16:13;8.13;;;1.20;;
17796;SDS011;55596;53.554;9.916;2023-07-31T14:18:41;20.73;;;1.50;;
17796;SDS011;55596;53.554;9.916;2023-07-31T14:21:10;8.40;;;1.00;;
17796;SDS011;55596;53.554;9.916;2023-07-31T14:23:37;4.57;;;1.13;;
17796;SDS011;55596;53.554;9.916;2023-07-31T14:26:04;3.37;;;1.47;;
17796;SDS011;55596;53.554;9.916;2023-07-31T14:28:32;16.77;;;1.80;;
17796;SDS011;55596;53.554;9.916;2023-07-31T14:30:59;2.10;;;1.30;;
17796;SDS011;55596;53.554;9.916;2023-07-31T14:33:26;4.90;;;1.30;;
17796;SDS011;55596;53.554;9.916;2023-07-31T14:35:54;55.73;;;3.37;;
17796;SDS011;55596;53.554;9.916;2023-07-31T14:38:22;45.00;;;2.40;;
17796;SDS011;55596;53.554;9.916;2023-07-31T14:40:49;3.43;;;0.80;;
17796;SDS011;55596;53.554;9.916;2023-07-31T14:43:16;17.97;;;1.40;;
17796;SDS011;55596;53.554;9.916;2023-07-31T14:45:43;7.50;;;1.40;;
17796;SDS011;55596;53.554;9.916;2023-07-31T14:48:11;11.30;;;1.80;;
17796;SDS011;55596;53.554;9.916;2023-07-31T14:50:39;6.13;;;1.40;;